createdAt,value
2018-05-13T00:00:38.882Z,32.33
2018-05-13T00:03:06.487Z,31.20
2018-05-13T00:05:34.061Z,35.20
2018-05-13T00:08:01.633Z,31.40
2018-05-13T00:10:29.279Z,30.20
2018-05-13T00:12:57.656Z,32.20
2018-05-13T00:15:26.041Z,32.40
2018-05-13T00:17:53.635Z,31.77
2018-05-13T00:20:22.056Z,31.87
2018-05-13T00:22:49.662Z,33.07
2018-05-13T00:25:17.295Z,30.70
2018-05-13T00:27:45.682Z,33.80
2018-05-13T00:30:14.075Z,32.60
2018-05-13T00:32:41.676Z,34.43
2018-05-13T00:35:09.317Z,32.40
2018-05-13T00:37:36.965Z,32.33
2018-05-13T00:40:04.543Z,30.67
2018-05-13T00:42:32.132Z,30.23
2018-05-13T00:44:59.693Z,33.13
2018-05-13T00:47:27.301Z,33.20
2018-05-13T00:49:55.636Z,32.67
2018-05-13T00:52:23.275Z,31.80
2018-05-13T00:54:55.424Z,31.50
2018-05-13T00:57:23.023Z,32.63
2018-05-13T00:59:50.654Z,29.77
2018-05-13T01:02:18.336Z,34.00
2018-05-13T01:04:45.864Z,31.43
2018-05-13T01:07:13.451Z,31.37
2018-05-13T01:09:41.052Z,32.70
2018-05-13T01:12:08.607Z,31.67
2018-05-13T01:14:36.192Z,31.80
2018-05-13T01:17:03.768Z,32.70
2018-05-13T01:19:31.391Z,32.10
2018-05-13T01:21:58.986Z,31.67
2018-05-13T01:24:26.608Z,32.00
2018-05-13T01:26:54.231Z,31.63
2018-05-13T01:29:21.834Z,32.33
2018-05-13T01:31:49.512Z,32.03
2018-05-13T01:34:17.867Z,31.87
2018-05-13T01:36:45.533Z,32.33
2018-05-13T01:39:13.085Z,31.60
2018-05-13T01:41:40.719Z,34.43
2018-05-13T01:44:08.339Z,32.83
2018-05-13T01:46:35.987Z,31.57
2018-05-13T01:49:04.359Z,31.90
2018-05-13T01:51:32.839Z,30.80
2018-05-13T01:54:00.398Z,32.10
2018-05-13T01:56:28.019Z,33.97
2018-05-13T01:58:55.620Z,32.10
2018-05-13T02:01:24.007Z,33.43
2018-05-13T02:03:51.642Z,33.70
2018-05-13T02:06:19.240Z,33.40
2018-05-13T02:08:46.874Z,31.70
2018-05-13T02:11:14.435Z,33.93
2018-05-13T02:13:42.047Z,32.70
2018-05-13T02:16:09.628Z,31.70
2018-05-13T02:18:37.279Z,30.00
2018-05-13T02:21:04.876Z,33.10
2018-05-13T02:23:32.511Z,30.33
2018-05-13T02:26:00.932Z,34.40
2018-05-13T02:28:28.588Z,31.83
2018-05-13T02:30:56.185Z,38.50
2018-05-13T02:33:23.793Z,33.47
2018-05-13T02:35:51.360Z,31.70
2018-05-13T02:38:19.019Z,30.30
2018-05-13T02:40:46.649Z,31.95
2018-05-13T02:43:14.317Z,32.80
2018-05-13T02:45:41.950Z,33.80
2018-05-13T02:48:09.646Z,31.63
2018-05-13T02:50:37.302Z,31.97
2018-05-13T02:53:05.016Z,30.47
2018-05-13T02:55:32.593Z,32.50
2018-05-13T02:58:00.309Z,30.50
2018-05-13T03:00:28.003Z,30.60
2018-05-13T03:02:56.363Z,32.40
2018-05-13T03:05:23.958Z,31.87
2018-05-13T03:07:51.631Z,31.00
2018-05-13T03:10:19.220Z,31.30
2018-05-13T03:12:47.062Z,34.30
2018-05-13T03:15:14.694Z,33.07
2018-05-13T03:17:43.069Z,32.20
2018-05-13T03:20:10.853Z,30.57
2018-05-13T03:22:38.441Z,31.77
2018-05-13T03:25:06.129Z,32.47
2018-05-13T03:27:33.744Z,30.70
2018-05-13T03:30:01.400Z,33.37
2018-05-13T03:32:29.013Z,31.37
2018-05-13T03:34:57.388Z,31.30
2018-05-13T03:37:24.969Z,33.90
2018-05-13T03:39:52.582Z,31.90
2018-05-13T03:42:20.177Z,33.83
2018-05-13T03:44:47.883Z,32.10
2018-05-13T03:47:15.543Z,32.17
2018-05-13T03:49:43.942Z,32.10
2018-05-13T03:52:11.605Z,32.10
2018-05-13T03:54:39.277Z,31.07
2018-05-13T03:57:06.905Z,33.27
2018-05-13T03:59:35.293Z,32.30
2018-05-13T04:02:02.848Z,32.40
2018-05-13T04:04:31.283Z,32.90
2018-05-13T04:06:58.896Z,31.90
2018-05-13T04:09:38.555Z,32.17
2018-05-13T04:12:17.960Z,32.10
2018-05-13T04:14:58.288Z,33.40
2018-05-13T04:17:25.917Z,31.67
2018-05-13T04:19:53.599Z,34.23
2018-05-13T04:22:21.247Z,33.10
2018-05-13T04:24:48.837Z,34.20
2018-05-13T04:27:16.451Z,37.70
2018-05-13T04:29:44.061Z,33.90
2018-05-13T04:32:11.691Z,34.50
2018-05-13T04:34:39.272Z,33.77
2018-05-13T04:37:07.072Z,33.60
2018-05-13T04:39:35.680Z,33.93
2018-05-13T04:42:03.349Z,32.33
2018-05-13T04:44:30.975Z,34.20
2018-05-13T04:46:59.354Z,33.30
2018-05-13T04:49:27.765Z,34.73
2018-05-13T04:51:55.430Z,35.50
2018-05-13T04:54:23.250Z,34.47
2018-05-13T04:56:50.861Z,32.43
2018-05-13T04:59:18.440Z,30.40
2018-05-13T05:01:46.039Z,29.63
2018-05-13T05:04:14.427Z,31.07
2018-05-13T05:06:42.119Z,28.77
2018-05-13T05:09:09.775Z,29.35
2018-05-13T05:11:37.412Z,30.13
2018-05-13T05:14:05.789Z,33.40
2018-05-13T05:16:33.370Z,30.58
2018-05-13T05:19:00.989Z,31.07
2018-05-13T05:21:28.569Z,31.90
2018-05-13T05:23:58.055Z,30.17
2018-05-13T05:26:25.652Z,32.40
2018-05-13T05:28:55.433Z,34.57
2018-05-13T05:31:23.036Z,32.80
2018-05-13T05:33:50.644Z,31.63
2018-05-13T05:36:18.269Z,33.20
2018-05-13T05:38:45.848Z,30.37
2018-05-13T05:41:13.500Z,30.50
2018-05-13T05:43:41.060Z,28.83
2018-05-13T05:46:08.684Z,31.57
2018-05-13T05:48:36.281Z,29.03
2018-05-13T05:51:03.903Z,29.23
2018-05-13T05:53:32.307Z,31.17
2018-05-13T05:56:00.269Z,29.60
2018-05-13T05:58:27.844Z,28.37
2018-05-13T06:00:55.472Z,27.67
2018-05-13T06:03:23.973Z,23.97
2018-05-13T06:05:51.547Z,28.07
2018-05-13T06:08:19.202Z,27.27
2018-05-13T06:10:46.874Z,26.13
2018-05-13T06:13:14.502Z,24.80
2018-05-13T06:15:42.829Z,25.13
2018-05-13T06:18:10.442Z,24.50
2018-05-13T06:20:38.830Z,24.60
2018-05-13T06:23:06.419Z,24.43
2018-05-13T06:25:34.047Z,24.47
2018-05-13T06:28:02.461Z,23.77
2018-05-13T06:30:30.898Z,24.60
2018-05-13T06:32:59.277Z,24.77
2018-05-13T06:35:26.890Z,25.33
2018-05-13T06:37:54.531Z,23.20
2018-05-13T06:40:22.175Z,24.30
2018-05-13T06:42:49.773Z,24.33
2018-05-13T06:45:17.437Z,25.83
2018-05-13T06:47:45.817Z,23.80
2018-05-13T06:50:13.461Z,25.30
2018-05-13T06:52:41.110Z,25.50
2018-05-13T06:55:08.735Z,26.63
2018-05-13T06:57:36.337Z,25.60
2018-05-13T07:00:04.006Z,27.20
2018-05-13T07:02:31.605Z,25.77
2018-05-13T07:04:59.213Z,26.87
2018-05-13T07:07:26.883Z,25.63
2018-05-13T07:09:54.495Z,27.10
2018-05-13T07:12:22.081Z,27.13
2018-05-13T07:14:50.451Z,27.37
2018-05-13T07:17:18.787Z,25.53
2018-05-13T07:19:46.396Z,24.17
2018-05-13T07:22:14.767Z,26.60
2018-05-13T07:24:43.135Z,28.10
2018-05-13T07:27:11.508Z,28.90
2018-05-13T07:29:39.111Z,25.60
2018-05-13T07:32:06.698Z,25.53
2018-05-13T07:34:34.285Z,27.63
2018-05-13T07:37:01.897Z,25.20
2018-05-13T07:39:29.529Z,26.87
2018-05-13T07:41:57.937Z,25.77
2018-05-13T07:44:25.512Z,24.60
2018-05-13T07:46:53.125Z,25.37
2018-05-13T07:49:21.500Z,24.10
2018-05-13T07:51:49.861Z,25.97
2018-05-13T07:54:17.462Z,25.53
2018-05-13T07:56:45.070Z,26.20
2018-05-13T07:59:12.659Z,26.80
2018-05-13T08:01:40.285Z,26.10
2018-05-13T08:04:07.885Z,25.87
2018-05-13T08:06:36.254Z,25.33
2018-05-13T08:09:03.859Z,26.23
2018-05-13T08:11:31.425Z,27.87
2018-05-13T08:13:59.155Z,26.67
2018-05-13T08:16:27.594Z,26.30
2018-05-13T08:18:55.242Z,26.60
2018-05-13T08:21:22.845Z,25.93
2018-05-13T08:23:51.260Z,26.67
2018-05-13T08:26:18.867Z,26.37
2018-05-13T08:28:46.519Z,29.83
2018-05-13T08:31:14.168Z,28.30
2018-05-13T08:33:41.782Z,28.50
2018-05-13T08:36:10.496Z,25.23
2018-05-13T08:38:38.089Z,28.87
2018-05-13T08:41:06.464Z,27.30
2018-05-13T08:43:34.092Z,28.20
2018-05-13T08:46:01.684Z,28.70
2018-05-13T08:48:29.405Z,28.33
2018-05-13T08:50:56.957Z,30.57
2018-05-13T08:53:25.302Z,30.73
2018-05-13T08:55:52.921Z,30.30
2018-05-13T08:58:20.597Z,29.20
2018-05-13T09:00:48.177Z,28.27
2018-05-13T09:03:15.828Z,29.77
2018-05-13T09:05:43.439Z,31.07
2018-05-13T09:08:11.107Z,29.10
2018-05-13T09:10:39.435Z,29.70
2018-05-13T09:13:07.055Z,31.07
2018-05-13T09:15:34.646Z,29.33
2018-05-13T09:18:02.322Z,30.00
2018-05-13T09:20:29.964Z,29.57
2018-05-13T09:22:57.561Z,29.27
2018-05-13T09:25:25.163Z,29.43
2018-05-13T09:27:52.738Z,31.00
2018-05-13T09:30:20.351Z,31.77
2018-05-13T09:32:48.706Z,27.10
2018-05-13T09:35:16.324Z,27.37
2018-05-13T09:37:43.884Z,31.10
2018-05-13T09:40:11.573Z,28.37
2018-05-13T09:42:39.166Z,26.17
2018-05-13T09:45:06.739Z,27.13
2018-05-13T09:47:34.389Z,27.37
2018-05-13T09:50:01.996Z,26.37
2018-05-13T09:52:29.644Z,28.53
2018-05-13T09:54:57.239Z,27.87
2018-05-13T09:57:24.879Z,25.60
2018-05-13T09:59:52.479Z,29.60
2018-05-13T10:02:20.077Z,27.67
2018-05-13T10:04:47.784Z,29.80
2018-05-13T10:07:15.392Z,26.77
2018-05-13T10:09:43.789Z,27.17
2018-05-13T10:12:11.471Z,28.10
2018-05-13T10:14:39.117Z,30.00
2018-05-13T10:17:07.862Z,27.50
2018-05-13T10:19:35.522Z,28.37
2018-05-13T10:22:03.115Z,27.60
2018-05-13T10:24:31.551Z,29.10
2018-05-13T10:26:59.185Z,27.83
2018-05-13T10:29:29.753Z,30.57
2018-05-13T10:31:57.378Z,29.37
2018-05-13T10:34:27.195Z,29.33
2018-05-13T10:37:04.374Z,28.40
2018-05-13T10:39:32.855Z,26.80
2018-05-13T10:42:00.422Z,26.20
2018-05-13T10:44:28.028Z,27.30
2018-05-13T10:46:55.803Z,26.03
2018-05-13T10:49:24.168Z,25.07
2018-05-13T10:51:51.773Z,25.97
2018-05-13T10:54:19.391Z,26.53
2018-05-13T10:56:47.028Z,25.03
2018-05-13T10:59:14.656Z,25.70
2018-05-13T11:01:42.292Z,29.70
2018-05-13T11:04:10.672Z,27.23
2018-05-13T11:06:39.081Z,30.50
2018-05-13T11:09:06.655Z,27.73
2018-05-13T11:11:34.264Z,27.37
2018-05-13T11:14:02.674Z,27.10
2018-05-13T11:16:30.705Z,24.87
2018-05-13T11:18:58.325Z,25.30
2018-05-13T11:21:25.896Z,26.50
2018-05-13T11:23:53.517Z,26.47
2018-05-13T11:26:21.173Z,28.17
2018-05-13T11:28:48.812Z,25.87
2018-05-13T11:31:17.214Z,28.67
2018-05-13T11:33:44.827Z,28.07
2018-05-13T11:36:13.265Z,28.37
2018-05-13T11:38:40.982Z,25.97
2018-05-13T11:41:08.777Z,27.53
2018-05-13T11:43:37.191Z,27.60
2018-05-13T11:46:04.904Z,27.23
2018-05-13T11:48:32.465Z,26.97
2018-05-13T11:51:00.871Z,23.10
2018-05-13T11:53:28.485Z,24.77
2018-05-13T11:55:56.097Z,24.80
2018-05-13T11:58:24.460Z,25.90
2018-05-13T12:00:52.892Z,24.27
2018-05-13T12:03:20.544Z,23.40
2018-05-13T12:05:48.154Z,24.17
2018-05-13T12:08:15.735Z,22.83
2018-05-13T12:10:44.101Z,24.10
2018-05-13T12:13:12.512Z,24.73
2018-05-13T12:15:40.110Z,23.70
2018-05-13T12:18:07.728Z,24.60
2018-05-13T12:20:35.472Z,22.83
2018-05-13T12:23:03.984Z,22.50
2018-05-13T12:25:31.562Z,24.70
2018-05-13T12:27:59.164Z,22.57
2018-05-13T12:30:27.499Z,34.77
2018-05-13T12:32:55.082Z,41.63
2018-05-13T12:35:22.698Z,42.90
2018-05-13T12:37:50.326Z,42.23
2018-05-13T12:40:18.009Z,40.80
2018-05-13T12:42:46.457Z,40.37
2018-05-13T12:45:14.094Z,41.30
2018-05-13T12:47:41.713Z,41.23
2018-05-13T12:50:10.139Z,34.40
2018-05-13T12:52:37.755Z,43.50
2018-05-13T12:55:06.151Z,41.27
2018-05-13T12:57:34.614Z,43.70
2018-05-13T13:00:02.989Z,41.67
2018-05-13T13:02:31.434Z,39.40
2018-05-13T13:04:59.031Z,41.27
2018-05-13T13:07:27.867Z,43.00
2018-05-13T13:09:55.566Z,43.20
2018-05-13T13:12:23.901Z,43.10
2018-05-13T13:14:51.501Z,47.03
2018-05-13T13:17:19.746Z,51.80
2018-05-13T13:19:48.292Z,53.73
2018-05-13T13:22:15.989Z,54.33
2018-05-13T13:24:43.588Z,62.73
2018-05-13T13:27:12.022Z,70.87
2018-05-13T13:29:40.713Z,73.53
2018-05-13T13:32:08.295Z,71.60
2018-05-13T13:34:35.945Z,74.37
2018-05-13T13:37:03.568Z,72.93
2018-05-13T13:39:31.165Z,60.77
2018-05-13T13:41:58.756Z,64.10
2018-05-13T13:44:26.376Z,63.70
2018-05-13T13:46:53.994Z,69.60
2018-05-13T13:49:22.404Z,68.47
2018-05-13T13:51:50.025Z,63.67
2018-05-13T13:54:17.657Z,58.37
2018-05-13T13:56:45.241Z,63.47
2018-05-13T13:59:12.977Z,56.77
2018-05-13T14:01:40.572Z,58.43
2018-05-13T14:04:08.188Z,59.50
2018-05-13T14:06:35.822Z,62.77
2018-05-13T14:09:03.543Z,62.43
2018-05-13T14:11:31.166Z,61.80
2018-05-13T14:13:58.818Z,63.43
2018-05-13T14:16:26.502Z,57.03
2018-05-13T14:18:54.163Z,59.73
2018-05-13T14:21:21.803Z,59.60
2018-05-13T14:23:49.554Z,64.47
2018-05-13T14:26:17.157Z,66.20
2018-05-13T14:28:44.787Z,68.50
2018-05-13T14:31:12.444Z,69.97
2018-05-13T14:33:40.032Z,61.83
2018-05-13T14:36:07.664Z,67.07
2018-05-13T14:38:35.355Z,65.87
2018-05-13T14:41:03.129Z,67.40
2018-05-13T14:43:31.440Z,59.63
2018-05-13T14:45:59.865Z,64.45
2018-05-13T14:48:27.487Z,67.37
2018-05-13T14:50:55.878Z,68.87
2018-05-13T14:53:23.511Z,71.30
2018-05-13T14:55:51.865Z,69.78
2018-05-13T14:58:19.485Z,62.78
2018-05-13T15:00:47.091Z,66.20
2018-05-13T15:03:14.732Z,69.40
2018-05-13T15:05:42.361Z,62.80
2018-05-13T15:08:10.032Z,61.80
2018-05-13T15:10:37.644Z,63.67
2018-05-13T15:13:05.988Z,61.20
2018-05-13T15:15:33.593Z,60.93
2018-05-13T15:18:02.020Z,58.38
2018-05-13T15:20:29.657Z,59.40
2018-05-13T15:22:58.014Z,62.00
2018-05-13T15:25:25.698Z,61.70
2018-05-13T15:27:54.149Z,61.15
2018-05-13T15:30:21.778Z,62.87
2018-05-13T15:32:49.862Z,61.58
2018-05-13T15:35:17.460Z,63.23
2018-05-13T15:37:45.099Z,61.30
2018-05-13T15:40:12.734Z,63.17
2018-05-13T15:42:40.410Z,60.90
2018-05-13T15:45:08.092Z,59.25
2018-05-13T15:47:35.752Z,56.10
2018-05-13T15:50:03.422Z,64.78
2018-05-13T15:52:31.047Z,62.38
2018-05-13T15:54:58.707Z,64.87
2018-05-13T15:57:26.323Z,57.40
2018-05-13T15:59:53.985Z,61.63
2018-05-13T16:02:22.364Z,61.37
2018-05-13T16:04:50.718Z,64.32
2018-05-13T16:07:18.336Z,52.15
2018-05-13T16:09:46.003Z,63.22
2018-05-13T16:12:13.696Z,51.63
2018-05-13T16:14:41.312Z,50.08
2018-05-13T16:17:08.913Z,55.67
2018-05-13T16:19:36.570Z,62.42
2018-05-13T16:22:06.144Z,53.85
2018-05-13T16:24:33.744Z,64.22
2018-05-13T16:27:01.444Z,60.53
2018-05-13T16:29:29.807Z,60.45
2018-05-13T16:31:58.172Z,62.17
2018-05-13T16:34:25.786Z,55.35
2018-05-13T16:36:53.496Z,64.05
2018-05-13T16:39:21.257Z,55.88
2018-05-13T16:41:48.911Z,64.50
2018-05-13T16:44:16.507Z,64.18
2018-05-13T16:46:44.100Z,64.50
2018-05-13T16:49:11.760Z,71.85
2018-05-13T16:51:39.341Z,68.60
2018-05-13T16:54:07.126Z,68.82
2018-05-13T16:56:34.724Z,69.62
2018-05-13T16:59:03.125Z,65.45
2018-05-13T17:01:30.833Z,65.35
2018-05-13T17:03:59.255Z,62.28
2018-05-13T17:06:26.847Z,60.22
2018-05-13T17:08:54.414Z,63.45
2018-05-13T17:11:22.088Z,62.17
2018-05-13T17:13:49.755Z,60.08
2018-05-13T17:16:17.739Z,56.17
2018-05-13T17:18:46.069Z,56.63
2018-05-13T17:21:13.792Z,56.50
2018-05-13T17:23:41.448Z,54.25
2018-05-13T17:26:09.103Z,55.72
2018-05-13T17:28:36.702Z,57.63
2018-05-13T17:31:04.368Z,57.70
2018-05-13T17:33:32.223Z,55.47
2018-05-13T17:36:00.830Z,62.07
2018-05-13T17:38:28.440Z,59.43
2018-05-13T17:40:56.074Z,56.42
2018-05-13T17:43:23.834Z,56.40
2018-05-13T17:45:51.493Z,56.33
2018-05-13T17:48:19.104Z,56.57
2018-05-13T17:50:46.782Z,56.17
2018-05-13T17:53:14.384Z,61.30
2018-05-13T17:55:43.178Z,57.67
2018-05-13T17:58:11.052Z,59.97
2018-05-13T18:00:38.676Z,62.05
2018-05-13T18:03:07.391Z,59.43
2018-05-13T18:05:34.921Z,61.77
2018-05-13T18:08:02.535Z,64.00
2018-05-13T18:10:30.194Z,61.60
2018-05-13T18:12:57.790Z,65.07
2018-05-13T18:15:26.176Z,68.03
2018-05-13T18:17:53.810Z,63.30
2018-05-13T18:20:21.499Z,65.47
2018-05-13T18:22:49.171Z,64.50
2018-05-13T18:25:16.804Z,61.65
2018-05-13T18:27:44.442Z,59.83
2018-05-13T18:30:12.082Z,57.37
2018-05-13T18:32:39.679Z,60.67
2018-05-13T18:35:07.442Z,59.30
2018-05-13T18:37:35.043Z,62.90
2018-05-13T18:40:02.665Z,64.60
2018-05-13T18:42:30.269Z,61.10
2018-05-13T18:44:57.853Z,58.30
2018-05-13T18:47:25.532Z,55.70
2018-05-13T18:49:53.171Z,59.60
2018-05-13T18:52:20.781Z,58.77
2018-05-13T18:54:48.431Z,63.83
2018-05-13T18:57:16.023Z,58.70
2018-05-13T18:59:44.398Z,62.23
2018-05-13T19:02:12.898Z,57.30
2018-05-13T19:04:40.503Z,63.13
2018-05-13T19:07:08.130Z,63.87
2018-05-13T19:09:35.792Z,63.45
2018-05-13T19:12:03.401Z,63.67
2018-05-13T19:14:31.074Z,61.90
2018-05-13T19:16:59.591Z,62.08
2018-05-13T19:19:27.180Z,61.20
2018-05-13T19:21:54.816Z,66.68
2018-05-13T19:24:22.547Z,61.60
2018-05-13T19:26:50.909Z,66.47
2018-05-13T19:29:18.539Z,58.78
2018-05-13T19:31:46.148Z,61.95
2018-05-13T19:34:15.276Z,63.55
2018-05-13T19:36:43.102Z,69.00
2018-05-13T19:39:10.683Z,70.40
2018-05-13T19:41:39.066Z,67.87
2018-05-13T19:44:06.665Z,78.07
2018-05-13T19:46:34.296Z,68.65
2018-05-13T19:49:01.917Z,62.35
2018-05-13T19:51:31.360Z,66.70
2018-05-13T19:53:58.964Z,63.85
2018-05-13T19:56:27.111Z,60.85
2018-05-13T19:58:54.752Z,68.00
2018-05-13T20:01:22.420Z,67.80
2018-05-13T20:03:50.120Z,66.75
2018-05-13T20:06:17.758Z,65.12
2018-05-13T20:08:45.467Z,66.70
2018-05-13T20:11:13.052Z,72.00
2018-05-13T20:13:41.419Z,69.70
2018-05-13T20:16:09.875Z,71.55
2018-05-13T20:18:37.530Z,74.90
2018-05-13T20:21:05.144Z,66.53
2018-05-13T20:23:34.789Z,73.22
2018-05-13T20:26:02.468Z,67.57
2018-05-13T20:28:30.124Z,64.05
2018-05-13T20:30:57.814Z,66.80
2018-05-13T20:33:25.481Z,64.60
2018-05-13T20:35:53.182Z,66.12
2018-05-13T20:38:21.535Z,64.53
2018-05-13T20:40:49.173Z,69.03
2018-05-13T20:43:16.782Z,66.25
2018-05-13T20:45:44.430Z,70.12
2018-05-13T20:48:12.158Z,70.43
2018-05-13T20:50:39.834Z,66.57
2018-05-13T20:53:07.456Z,73.15
2018-05-13T20:55:35.111Z,69.12
2018-05-13T20:58:02.740Z,72.20
2018-05-13T21:00:31.306Z,72.93
2018-05-13T21:02:59.731Z,72.10
2018-05-13T21:05:27.408Z,71.40
2018-05-13T21:07:55.027Z,68.65
2018-05-13T21:10:23.439Z,65.93
2018-05-13T21:12:52.677Z,66.20
2018-05-13T21:15:21.039Z,64.90
2018-05-13T21:17:48.678Z,66.57
2018-05-13T21:20:16.303Z,61.30
2018-05-13T21:22:43.969Z,67.05
2018-05-13T21:25:11.558Z,62.10
2018-05-13T21:27:39.206Z,64.22
2018-05-13T21:30:06.884Z,67.23
2018-05-13T21:32:34.518Z,66.30
2018-05-13T21:35:02.149Z,65.95
2018-05-13T21:37:29.788Z,66.03
2018-05-13T21:39:58.227Z,67.73
2018-05-13T21:42:26.575Z,64.30
2018-05-13T21:44:54.190Z,67.00
2018-05-13T21:47:21.832Z,63.28
2018-05-13T21:49:49.454Z,69.17
2018-05-13T21:52:17.054Z,66.05
2018-05-13T21:54:44.661Z,65.93
2018-05-13T21:57:12.287Z,65.57
2018-05-13T21:59:39.891Z,65.43
2018-05-13T22:02:07.516Z,62.80
2018-05-13T22:04:35.224Z,59.57
2018-05-13T22:07:02.823Z,56.28
2018-05-13T22:09:30.447Z,60.22
2018-05-13T22:11:58.175Z,62.28
2018-05-13T22:14:25.783Z,65.05
2018-05-13T22:16:54.146Z,67.70
2018-05-13T22:19:21.847Z,59.85
2018-05-13T22:21:49.441Z,58.83
2018-05-13T22:24:17.069Z,62.57
2018-05-13T22:26:44.700Z,64.68
2018-05-13T22:29:13.100Z,60.33
2018-05-13T22:31:41.472Z,58.57
2018-05-13T22:34:09.821Z,63.65
2018-05-13T22:36:37.562Z,61.35
2018-05-13T22:39:05.088Z,57.30
2018-05-13T22:41:32.761Z,63.53
2018-05-13T22:44:00.382Z,61.47
2018-05-13T22:46:28.066Z,63.53
2018-05-13T22:48:56.609Z,63.22
2018-05-13T22:51:24.206Z,59.97
2018-05-13T22:53:52.613Z,64.55
2018-05-13T22:56:20.401Z,64.07
2018-05-13T22:58:48.021Z,65.10
2018-05-13T23:01:15.611Z,67.32
2018-05-13T23:03:43.272Z,68.45
2018-05-13T23:06:10.913Z,67.90
2018-05-13T23:08:38.576Z,63.70
2018-05-13T23:11:06.240Z,60.97
2018-05-13T23:13:34.879Z,65.87
2018-05-13T23:16:02.511Z,65.35
2018-05-13T23:18:30.275Z,65.87
2018-05-13T23:20:57.865Z,66.35
2018-05-13T23:23:25.467Z,65.90
2018-05-13T23:25:53.105Z,67.75
2018-05-13T23:28:20.682Z,66.45
2018-05-13T23:30:49.070Z,64.03
2018-05-13T23:33:16.665Z,63.95
2018-05-13T23:35:44.303Z,58.77
2018-05-13T23:38:11.906Z,63.03
2018-05-13T23:40:39.516Z,65.77
2018-05-13T23:43:07.139Z,63.45
2018-05-13T23:45:34.759Z,57.62
2018-05-13T23:48:02.376Z,63.63
2018-05-13T23:50:30.752Z,65.15
2018-05-13T23:52:59.116Z,63.60
2018-05-13T23:55:26.742Z,62.90
2018-05-13T23:57:54.341Z,65.43
